createdAt,value
2018-11-06T00:01:53.452Z,34.60
2018-11-06T00:05:28.221Z,58.50
2018-11-06T00:07:58.888Z,41.40
2018-11-06T00:10:31.396Z,43.73
2018-11-06T00:13:02.364Z,72.03
2018-11-06T00:15:33.278Z,52.80
2018-11-06T00:18:05.332Z,55.23
2018-11-06T00:20:36.727Z,38.60
2018-11-06T00:23:07.452Z,44.10
2018-11-06T00:25:38.101Z,34.10
2018-11-06T00:28:08.794Z,47.20
2018-11-06T00:30:40.103Z,41.27
2018-11-06T00:33:10.707Z,52.07
2018-11-06T00:35:41.414Z,46.70
2018-11-06T00:38:12.915Z,65.70
2018-11-06T00:40:43.556Z,45.70
2018-11-06T00:43:13.976Z,58.73
2018-11-06T00:45:44.569Z,77.57
2018-11-06T00:48:15.285Z,52.20
2018-11-06T00:50:45.923Z,69.63
2018-11-06T00:53:16.564Z,35.60
2018-11-06T00:55:47.220Z,41.00
2018-11-06T00:58:18.025Z,41.37
2018-11-06T01:00:48.599Z,31.30
2018-11-06T01:03:19.290Z,42.37
2018-11-06T01:05:50.895Z,45.70
2018-11-06T01:08:21.682Z,31.53
2018-11-06T01:10:52.367Z,32.70
2018-11-06T01:13:23.048Z,28.03
2018-11-06T01:15:53.577Z,24.40
2018-11-06T01:18:24.184Z,26.67
2018-11-06T01:20:54.829Z,23.20
2018-11-06T01:23:25.796Z,19.65
2018-11-06T01:25:56.382Z,23.90
2018-11-06T01:28:27.248Z,24.27
2018-11-06T01:30:59.160Z,21.27
2018-11-06T01:33:29.800Z,20.17
2018-11-06T01:36:00.553Z,26.97
2018-11-06T01:38:31.065Z,21.43
2018-11-06T01:41:01.788Z,21.83
2018-11-06T01:43:32.553Z,22.60
2018-11-06T01:46:02.997Z,20.43
2018-11-06T01:48:33.625Z,18.40
2018-11-06T01:51:04.325Z,18.80
2018-11-06T01:53:35.256Z,19.35
2018-11-06T01:56:05.884Z,21.40
2018-11-06T01:58:36.688Z,20.67
2018-11-06T02:01:07.379Z,17.67
2018-11-06T02:03:38.844Z,18.33
2018-11-06T02:06:10.053Z,17.43
2018-11-06T02:08:40.675Z,15.23
2018-11-06T02:11:11.436Z,18.17
2018-11-06T02:13:42.150Z,22.83
2018-11-06T02:16:12.831Z,18.30
2018-11-06T02:18:44.151Z,19.37
2018-11-06T02:21:16.184Z,18.13
2018-11-06T02:23:49.196Z,17.77
2018-11-06T02:26:20.095Z,18.47
2018-11-06T02:28:50.989Z,19.97
2018-11-06T02:31:22.369Z,15.35
2018-11-06T02:33:53.469Z,19.15
2018-11-06T02:36:24.720Z,20.00
2018-11-06T02:38:56.248Z,17.90
2018-11-06T02:41:27.231Z,19.52
2018-11-06T02:43:58.232Z,17.00
2018-11-06T02:46:29.967Z,15.25
2018-11-06T02:49:01.033Z,18.57
2018-11-06T02:51:32.059Z,13.40
2018-11-06T02:54:02.844Z,15.40
2018-11-06T02:56:33.523Z,17.47
2018-11-06T02:59:04.385Z,14.20
2018-11-06T03:01:34.982Z,15.27
2018-11-06T03:04:06.152Z,18.10
2018-11-06T03:06:36.765Z,15.13
2018-11-06T03:09:08.362Z,17.97
2018-11-06T03:11:39.040Z,18.40
2018-11-06T03:14:09.697Z,17.40
2018-11-06T03:16:40.438Z,17.77
2018-11-06T03:19:11.273Z,15.70
2018-11-06T03:21:41.871Z,19.07
2018-11-06T03:24:12.624Z,20.17
2018-11-06T03:26:43.242Z,18.73
2018-11-06T03:29:14.094Z,14.90
2018-11-06T03:31:45.128Z,16.05
2018-11-06T03:34:15.772Z,15.87
2018-11-06T03:36:46.699Z,13.80
2018-11-06T03:39:17.320Z,19.23
2018-11-06T03:41:47.958Z,16.63
2018-11-06T03:44:18.668Z,16.70
2018-11-06T03:46:49.699Z,20.40
2018-11-06T03:49:20.352Z,16.93
2018-11-06T03:51:51.019Z,16.77
2018-11-06T03:54:21.912Z,18.10
2018-11-06T03:56:52.484Z,16.73
2018-11-06T03:59:24.201Z,13.50
2018-11-06T04:01:55.155Z,13.18
2018-11-06T04:04:25.868Z,16.03
2018-11-06T04:06:56.522Z,16.10
2018-11-06T04:09:27.132Z,15.10
2018-11-06T04:11:57.879Z,16.37
2018-11-06T04:14:28.512Z,15.50
2018-11-06T04:16:59.160Z,17.97
2018-11-06T04:19:29.864Z,17.40
2018-11-06T04:22:01.359Z,15.23
2018-11-06T04:24:31.939Z,15.47
2018-11-06T04:27:02.708Z,18.10
2018-11-06T04:29:33.312Z,18.00
2018-11-06T04:32:03.959Z,15.77
2018-11-06T04:34:35.084Z,15.90
2018-11-06T04:37:05.935Z,15.63
2018-11-06T04:39:36.851Z,14.87
2018-11-06T04:42:07.924Z,20.20
2018-11-06T04:44:38.942Z,17.10
2018-11-06T04:47:09.700Z,14.07
2018-11-06T04:49:40.676Z,16.42
2018-11-06T04:52:11.879Z,16.20
2018-11-06T04:54:45.197Z,17.33
2018-11-06T04:57:16.313Z,14.07
2018-11-06T04:59:47.150Z,16.53
2018-11-06T05:02:18.960Z,14.07
2018-11-06T05:04:52.548Z,14.60
2018-11-06T05:07:23.223Z,15.37
2018-11-06T05:09:54.028Z,16.60
2018-11-06T05:12:25.013Z,17.20
2018-11-06T05:14:55.744Z,17.60
2018-11-06T05:17:27.124Z,13.50
2018-11-06T05:19:57.715Z,17.87
2018-11-06T05:22:28.524Z,15.10
2018-11-06T05:24:59.120Z,13.77
2018-11-06T05:27:29.849Z,12.80
2018-11-06T05:30:00.973Z,15.50
2018-11-06T05:32:31.551Z,15.53
2018-11-06T05:35:02.203Z,16.63
2018-11-06T05:37:33.097Z,21.15
2018-11-06T05:40:20.842Z,22.58
2018-11-06T05:42:53.094Z,20.20
2018-11-06T05:45:24.970Z,15.50
2018-11-06T05:47:56.036Z,16.73
2018-11-06T05:50:27.097Z,14.68
2018-11-06T05:52:58.975Z,17.00
2018-11-06T05:55:29.940Z,12.97
2018-11-06T05:58:00.807Z,13.05
2018-11-06T06:00:31.877Z,15.23
2018-11-06T06:03:03.622Z,18.00
2018-11-06T06:05:35.893Z,16.12
2018-11-06T06:08:07.908Z,14.33
2018-11-06T06:10:39.676Z,14.75
2018-11-06T06:13:10.546Z,15.68
2018-11-06T06:15:41.639Z,17.15
2018-11-06T06:18:12.703Z,18.15
2018-11-06T06:20:43.762Z,16.75
2018-11-06T06:23:15.323Z,14.43
2018-11-06T06:25:46.253Z,16.77
2018-11-06T06:28:17.484Z,14.40
2018-11-06T06:30:48.228Z,16.23
2018-11-06T06:33:19.103Z,15.80
2018-11-06T06:35:49.689Z,18.00
2018-11-06T06:38:21.076Z,16.63
2018-11-06T06:40:52.240Z,16.40
2018-11-06T06:43:23.320Z,15.83
2018-11-06T06:45:53.989Z,16.77
2018-11-06T06:48:24.592Z,15.60
2018-11-06T06:50:55.179Z,14.70
2018-11-06T06:53:26.395Z,17.83
2018-11-06T06:55:57.225Z,15.93
2018-11-06T06:58:28.157Z,19.92
2018-11-06T07:00:58.882Z,17.70
2018-11-06T07:03:30.295Z,17.77
2018-11-06T07:06:02.141Z,16.53
2018-11-06T07:08:33.098Z,17.10
2018-11-06T07:11:05.331Z,19.90
2018-11-06T07:13:37.145Z,18.77
2018-11-06T07:16:10.333Z,15.80
2018-11-06T07:18:46.255Z,17.30
2018-11-06T07:21:18.161Z,19.07
2018-11-06T07:23:48.764Z,16.47
2018-11-06T07:26:19.399Z,17.77
2018-11-06T07:28:54.899Z,16.40
2018-11-06T07:31:26.033Z,15.37
2018-11-06T07:33:56.607Z,17.07
2018-11-06T07:36:27.244Z,17.47
2018-11-06T07:38:59.421Z,18.77
2018-11-06T07:41:30.188Z,19.37
2018-11-06T07:44:01.626Z,19.70
2018-11-06T07:46:33.056Z,18.30
2018-11-06T07:49:03.712Z,21.13
2018-11-06T07:51:34.887Z,21.43
2018-11-06T07:54:05.393Z,18.70
2018-11-06T07:56:36.099Z,16.20
2018-11-06T07:59:07.500Z,20.83
2018-11-06T08:01:38.192Z,17.40
2018-11-06T08:04:08.970Z,18.03
2018-11-06T08:06:44.079Z,18.87
2018-11-06T08:09:16.111Z,19.47
2018-11-06T08:11:46.968Z,19.63
2018-11-06T08:14:17.797Z,19.13
2018-11-06T08:16:49.169Z,18.13
2018-11-06T08:19:20.089Z,17.50
2018-11-06T08:21:50.959Z,20.10
2018-11-06T08:24:28.595Z,19.07
2018-11-06T08:27:00.293Z,17.63
2018-11-06T08:29:30.924Z,19.97
2018-11-06T08:32:02.187Z,17.70
2018-11-06T08:34:32.559Z,18.50
2018-11-06T08:37:03.645Z,16.50
2018-11-06T08:39:34.531Z,16.27
2018-11-06T08:42:06.570Z,16.50
2018-11-06T08:44:37.592Z,17.80
2018-11-06T08:47:08.693Z,15.83
2018-11-06T08:49:39.343Z,14.90
2018-11-06T08:52:10.031Z,15.73
2018-11-06T08:54:41.183Z,15.33
2018-11-06T08:57:12.032Z,15.00
2018-11-06T08:59:43.840Z,16.30
2018-11-06T09:02:14.641Z,13.77
2018-11-06T09:04:45.305Z,15.53
2018-11-06T09:07:16.004Z,17.80
2018-11-06T09:09:49.156Z,14.97
2018-11-06T09:12:20.436Z,15.47
2018-11-06T09:14:51.081Z,13.27
2018-11-06T09:17:21.742Z,14.93
2018-11-06T09:19:52.462Z,15.77
2018-11-06T09:22:23.832Z,14.70
2018-11-06T09:24:57.852Z,16.07
2018-11-06T09:27:29.112Z,13.97
2018-11-06T09:30:03.967Z,16.73
2018-11-06T09:32:35.219Z,16.83
2018-11-06T09:35:06.931Z,12.60
2018-11-06T09:37:42.358Z,14.93
2018-11-06T09:40:15.743Z,16.00
2018-11-06T09:42:46.668Z,13.67
2018-11-06T09:45:17.529Z,15.67
2018-11-06T09:47:48.539Z,14.83
2018-11-06T09:50:19.895Z,17.60
2018-11-06T09:52:50.699Z,12.10
2018-11-06T09:55:22.003Z,12.87
2018-11-06T09:57:52.855Z,13.20
2018-11-06T10:00:24.486Z,12.20
2018-11-06T10:02:55.196Z,12.97
2018-11-06T10:05:26.721Z,10.93
2018-11-06T10:07:57.530Z,12.10
2018-11-06T10:10:28.404Z,14.83
2018-11-06T10:12:59.229Z,16.97
2018-11-06T10:15:29.862Z,10.50
2018-11-06T10:18:00.684Z,10.53
2018-11-06T10:20:31.496Z,12.33
2018-11-06T10:23:02.323Z,10.87
2018-11-06T10:25:33.467Z,11.30
2018-11-06T10:28:04.176Z,11.37
2018-11-06T10:30:35.775Z,11.50
2018-11-06T10:33:07.753Z,12.57
2018-11-06T10:35:39.776Z,13.60
2018-11-06T10:38:10.930Z,10.93
2018-11-06T10:40:43.098Z,11.83
2018-11-06T10:43:14.044Z,11.43
2018-11-06T10:45:45.514Z,13.67
2018-11-06T10:48:17.947Z,13.50
2018-11-06T10:50:48.624Z,14.27
2018-11-06T10:53:19.232Z,11.80
2018-11-06T10:55:49.882Z,11.00
2018-11-06T10:58:21.028Z,12.70
2018-11-06T11:00:57.044Z,12.13
2018-11-06T11:04:32.228Z,14.40
2018-11-06T11:07:02.956Z,13.87
2018-11-06T11:09:33.675Z,7.60
2018-11-06T11:12:04.270Z,10.00
2018-11-06T11:14:34.867Z,8.17
2018-11-06T11:17:06.564Z,6.40
2018-11-06T11:19:37.325Z,6.90
2018-11-06T11:22:08.167Z,6.23
2018-11-06T11:24:38.865Z,5.80
2018-11-06T11:27:10.140Z,5.50
2018-11-06T11:29:40.976Z,6.70
2018-11-06T11:32:11.549Z,10.47
2018-11-06T11:34:44.024Z,30.23
2018-11-06T11:37:14.807Z,9.07
2018-11-06T11:39:46.738Z,6.07
2018-11-06T11:42:18.457Z,5.13
2018-11-06T11:44:49.530Z,5.73
2018-11-06T11:47:20.785Z,6.80
2018-11-06T11:49:53.517Z,6.47
2018-11-06T11:52:25.240Z,5.17
2018-11-06T11:54:56.628Z,6.60
2018-11-06T11:57:28.467Z,5.67
2018-11-06T12:00:01.109Z,5.23
2018-11-06T12:02:31.835Z,7.07
2018-11-06T12:05:02.722Z,4.53
2018-11-06T12:07:33.409Z,5.93
2018-11-06T12:10:04.068Z,7.23
2018-11-06T12:12:34.933Z,5.73
2018-11-06T12:15:08.055Z,6.50
2018-11-06T12:17:38.800Z,6.00
2018-11-06T12:20:09.612Z,8.17
2018-11-06T12:22:40.555Z,7.63
2018-11-06T12:25:12.113Z,4.80
2018-11-06T12:27:43.073Z,6.70
2018-11-06T12:30:15.574Z,5.67
2018-11-06T12:32:46.247Z,4.90
2018-11-06T12:35:17.044Z,5.10
2018-11-06T12:37:47.612Z,4.40
2018-11-06T12:40:18.548Z,4.43
2018-11-06T12:42:49.158Z,4.00
2018-11-06T12:45:20.063Z,4.80
2018-11-06T12:47:50.926Z,4.80
2018-11-06T12:50:21.519Z,4.67
2018-11-06T12:52:52.374Z,4.27
2018-11-06T12:55:22.984Z,4.20
2018-11-06T12:57:53.666Z,4.53
2018-11-06T13:00:24.385Z,6.93
2018-11-06T13:02:55.012Z,4.93
2018-11-06T13:05:25.773Z,4.27
2018-11-06T13:07:57.093Z,4.80
2018-11-06T13:10:27.711Z,5.37
2018-11-06T13:12:58.139Z,4.23
2018-11-06T13:15:28.913Z,5.40
2018-11-06T13:18:00.514Z,4.27
2018-11-06T13:20:33.099Z,4.00
2018-11-06T13:23:06.867Z,5.10
2018-11-06T13:25:38.853Z,4.43
2018-11-06T13:28:10.017Z,5.43
2018-11-06T13:30:42.691Z,5.50
2018-11-06T13:33:14.155Z,5.67
2018-11-06T13:35:44.955Z,5.72
2018-11-06T13:38:19.255Z,4.50
2018-11-06T13:40:50.012Z,5.57
2018-11-06T13:43:20.639Z,4.73
2018-11-06T13:45:51.615Z,5.70
2018-11-06T13:48:22.120Z,5.30
2018-11-06T13:50:52.808Z,12.10
2018-11-06T13:53:23.487Z,14.80
2018-11-06T13:55:54.119Z,21.17
2018-11-06T13:58:25.556Z,6.83
2018-11-06T14:00:57.033Z,4.50
2018-11-06T14:03:27.855Z,13.13
2018-11-06T14:05:59.152Z,5.77
2018-11-06T14:08:30.498Z,5.70
2018-11-06T14:11:01.189Z,5.63
2018-11-06T14:13:31.939Z,5.43
2018-11-06T14:16:03.615Z,4.37
2018-11-06T14:18:34.883Z,5.00
2018-11-06T14:21:05.757Z,4.70
2018-11-06T14:23:37.987Z,4.23
2018-11-06T14:26:08.982Z,4.40
2018-11-06T14:28:39.752Z,5.47
2018-11-06T14:31:09.471Z,5.50
2018-11-06T14:33:40.047Z,5.07
2018-11-06T14:36:09.642Z,6.13
2018-11-06T14:38:41.407Z,5.00
2018-11-06T14:41:12.444Z,4.73
2018-11-06T14:43:45.760Z,5.00
2018-11-06T14:46:17.127Z,6.40
2018-11-06T14:48:48.769Z,28.03
2018-11-06T14:51:22.557Z,12.43
2018-11-06T14:53:54.215Z,5.80
2018-11-06T14:56:25.378Z,6.10
2018-11-06T14:58:57.518Z,7.00
2018-11-06T15:01:28.389Z,4.93
2018-11-06T15:04:01.048Z,6.37
2018-11-06T15:06:32.858Z,5.20
2018-11-06T15:09:04.988Z,6.10
2018-11-06T15:11:38.529Z,5.33
2018-11-06T15:14:09.416Z,6.90
2018-11-06T15:16:40.047Z,6.37
2018-11-06T15:19:10.851Z,6.57
2018-11-06T15:21:41.815Z,5.00
2018-11-06T15:24:12.576Z,7.77
2018-11-06T15:26:43.362Z,7.00
2018-11-06T15:29:14.077Z,6.93
2018-11-06T15:31:44.816Z,6.13
2018-11-06T15:34:15.555Z,9.20
2018-11-06T15:36:46.284Z,5.90
2018-11-06T15:39:16.955Z,7.33
2018-11-06T15:41:48.252Z,6.67
2018-11-06T15:44:19.207Z,6.27
2018-11-06T15:46:50.014Z,5.97
2018-11-06T15:49:20.657Z,6.93
2018-11-06T15:51:51.407Z,7.03
2018-11-06T15:54:22.124Z,12.00
2018-11-06T15:56:52.970Z,15.73
2018-11-06T15:59:23.548Z,13.80
2018-11-06T16:01:54.456Z,7.60
2018-11-06T16:04:27.249Z,13.00
2018-11-06T16:06:58.394Z,12.10
2018-11-06T16:09:33.935Z,7.00
2018-11-06T16:12:05.065Z,5.07
2018-11-06T16:14:38.388Z,11.83
2018-11-06T16:17:10.632Z,6.63
2018-11-06T16:19:42.246Z,6.23
2018-11-06T16:22:13.008Z,5.40
2018-11-06T16:24:45.185Z,6.60
2018-11-06T16:27:15.877Z,6.07
2018-11-06T16:29:46.609Z,7.77
2018-11-06T16:32:17.663Z,8.13
2018-11-06T16:34:48.260Z,6.80
2018-11-06T16:37:19.320Z,7.10
2018-11-06T16:39:50.060Z,11.70
2018-11-06T16:42:21.234Z,18.43
2018-11-06T16:44:51.955Z,17.90
2018-11-06T16:47:22.904Z,21.60
2018-11-06T16:49:53.652Z,24.57
2018-11-06T16:52:24.972Z,23.03
2018-11-06T16:54:55.695Z,24.90
2018-11-06T16:57:26.540Z,26.67
2018-11-06T16:59:57.388Z,22.80
2018-11-06T17:02:28.373Z,22.87
2018-11-06T17:04:58.993Z,24.70
2018-11-06T17:07:30.590Z,23.23
2018-11-06T17:10:03.166Z,23.87
2018-11-06T17:12:34.015Z,23.10
2018-11-06T17:15:05.267Z,22.23
2018-11-06T17:17:35.880Z,21.57
2018-11-06T17:20:08.753Z,21.87
2018-11-06T17:22:40.529Z,23.10
2018-11-06T17:25:13.721Z,21.80
2018-11-06T17:27:46.325Z,22.00
2018-11-06T17:30:18.083Z,23.20
2018-11-06T17:32:49.324Z,21.43
2018-11-06T17:35:21.842Z,22.03
2018-11-06T17:37:53.196Z,22.53
2018-11-06T17:40:24.659Z,20.97
2018-11-06T17:42:55.307Z,22.83
2018-11-06T17:45:25.988Z,51.53
2018-11-06T17:47:56.780Z,61.50
2018-11-06T17:50:27.419Z,23.90
2018-11-06T17:52:58.260Z,24.80
2018-11-06T17:55:28.970Z,19.43
2018-11-06T17:57:59.732Z,20.20
2018-11-06T18:00:30.351Z,40.73
2018-11-06T18:03:01.096Z,139.20
2018-11-06T18:05:34.772Z,28.47
2018-11-06T18:08:06.041Z,22.83
2018-11-06T18:10:36.873Z,30.77
2018-11-06T18:13:07.785Z,23.07
2018-11-06T18:15:38.512Z,21.33
2018-11-06T18:39:22.423Z,32.17
2018-11-06T18:44:52.138Z,25.80
2018-11-06T18:50:38.749Z,23.70
2018-11-06T19:23:12.153Z,43.70
2018-11-06T19:56:05.348Z,47.27
2018-11-06T19:58:42.435Z,28.93
2018-11-06T20:09:05.296Z,24.37
2018-11-06T20:11:39.306Z,23.43
2018-11-06T20:24:37.039Z,26.53
2018-11-06T20:27:08.973Z,25.00
2018-11-06T20:32:22.631Z,24.43
2018-11-06T20:40:28.159Z,23.20
2018-11-06T20:42:58.973Z,23.10
2018-11-06T20:55:59.160Z,26.87
2018-11-06T20:58:32.132Z,26.87
2018-11-06T21:11:40.706Z,29.00
2018-11-06T21:14:14.214Z,28.27
2018-11-06T21:19:22.434Z,26.20
2018-11-06T21:21:56.013Z,26.30
2018-11-06T21:29:42.575Z,31.73
2018-11-06T21:32:13.513Z,27.47
2018-11-06T21:45:39.907Z,29.97
2018-11-06T21:50:48.434Z,26.00
2018-11-06T21:53:19.140Z,27.70
2018-11-06T21:58:26.737Z,29.37
2018-11-06T22:00:57.584Z,30.97
2018-11-06T22:06:12.879Z,26.53
2018-11-06T22:08:43.663Z,27.43
2018-11-06T22:13:49.816Z,31.97
2018-11-06T22:18:58.593Z,34.00
2018-11-06T22:21:33.930Z,31.23
2018-11-06T22:24:05.229Z,30.33
2018-11-06T22:26:36.123Z,31.17
2018-11-06T22:29:08.182Z,27.30
2018-11-06T22:31:39.122Z,29.30
2018-11-06T22:34:11.386Z,26.97
2018-11-06T22:36:42.229Z,25.00
2018-11-06T22:39:13.192Z,25.03
2018-11-06T22:41:43.832Z,24.63
2018-11-06T22:44:14.467Z,26.70
2018-11-06T22:46:49.363Z,29.00
2018-11-06T22:49:21.092Z,29.33
2018-11-06T22:51:51.881Z,30.90
2018-11-06T22:54:23.027Z,29.90
2018-11-06T22:56:55.504Z,28.30
2018-11-06T22:59:26.176Z,25.93
2018-11-06T23:01:57.015Z,30.77
2018-11-06T23:04:28.107Z,29.83
2018-11-06T23:06:58.884Z,26.77
2018-11-06T23:09:29.708Z,30.07
2018-11-06T23:12:00.340Z,29.30
2018-11-06T23:14:31.164Z,27.33
2018-11-06T23:17:02.061Z,27.60
2018-11-06T23:19:32.808Z,26.70
2018-11-06T23:22:03.446Z,29.80
2018-11-06T23:24:34.180Z,29.03
2018-11-06T23:27:04.824Z,28.40
2018-11-06T23:29:35.463Z,26.80
2018-11-06T23:32:07.071Z,25.97
2018-11-06T23:34:37.917Z,25.57
2018-11-06T23:37:08.712Z,29.47
2018-11-06T23:39:40.166Z,26.50
2018-11-06T23:42:10.846Z,26.43
2018-11-06T23:44:41.701Z,26.40
2018-11-06T23:47:12.817Z,29.00
2018-11-06T23:49:45.174Z,27.80
2018-11-06T23:52:16.852Z,24.63
2018-11-06T23:54:48.692Z,29.97
2018-11-06T23:57:20.264Z,27.00
2018-11-06T23:59:51.656Z,28.57
